createdAt,value
2022-12-05T00:01:54.190Z,101029.63
2022-12-05T00:04:26.509Z,101031.23
2022-12-05T00:06:58.709Z,101037.66
2022-12-05T00:09:31.361Z,101034.73
2022-12-05T00:12:03.482Z,101032.73
2022-12-05T00:14:35.567Z,101031.32
2022-12-05T00:17:07.704Z,101036.60
2022-12-05T00:19:40.750Z,101042.15
2022-12-05T00:22:12.942Z,101037.95
2022-12-05T00:24:44.959Z,101036.34
2022-12-05T00:27:17.025Z,101025.58
2022-12-05T00:29:49.499Z,101034.66
2022-12-05T00:32:21.644Z,101036.84
2022-12-05T00:34:53.761Z,101036.05
2022-12-05T00:37:26.133Z,101031.80
2022-12-05T00:39:58.487Z,101036.96
2022-12-05T00:42:30.777Z,101033.90
2022-12-05T00:45:03.022Z,101038.86
2022-12-05T00:47:37.724Z,101039.77
2022-12-05T00:50:11.576Z,101041.98
2022-12-05T00:52:43.777Z,101042.10
2022-12-05T00:55:15.968Z,101034.73
2022-12-05T00:57:48.105Z,101035.06
2022-12-05T01:00:22.185Z,101032.77
2022-12-05T01:02:54.346Z,101030.27
2022-12-05T01:05:26.510Z,101030.61
2022-12-05T01:07:58.772Z,101023.88
2022-12-05T01:10:31.025Z,101018.04
2022-12-05T01:13:03.196Z,101016.61
2022-12-05T01:15:39.100Z,101008.77
2022-12-05T01:18:11.575Z,101005.70
2022-12-05T01:20:44.384Z,100998.67
2022-12-05T01:23:17.017Z,101000.09
2022-12-05T01:25:51.411Z,100994.36
2022-12-05T01:28:23.957Z,100989.27
2022-12-05T01:30:56.077Z,100995.04
2022-12-05T01:33:28.168Z,100992.70
2022-12-05T01:36:00.312Z,100990.53
2022-12-05T01:38:32.609Z,100984.56
2022-12-05T01:41:07.643Z,100970.58
2022-12-05T01:44:01.650Z,100970.21
2022-12-05T01:46:36.222Z,100966.44
2022-12-05T01:49:12.078Z,100963.48
2022-12-05T01:51:47.168Z,100962.43
2022-12-05T01:54:20.843Z,100964.98
2022-12-05T01:56:58.335Z,100968.41
2022-12-05T01:59:35.420Z,100965.87
2022-12-05T02:02:08.584Z,100958.54
2022-12-05T02:04:47.512Z,100952.39
2022-12-05T02:07:20.579Z,100961.05
2022-12-05T02:09:53.666Z,100962.80
2022-12-05T02:12:26.657Z,100965.80
2022-12-05T02:15:13.544Z,100967.27
2022-12-05T02:17:54.850Z,100974.49
2022-12-05T02:20:39.844Z,100975.34
2022-12-05T02:23:30.546Z,100980.31
2022-12-05T02:26:40.220Z,100980.27
2022-12-05T02:29:33.100Z,100974.55
2022-12-05T02:32:12.204Z,100967.52
2022-12-05T02:34:54.304Z,100969.21
2022-12-05T02:37:33.030Z,100970.89
2022-12-05T02:40:12.235Z,100966.61
2022-12-05T02:42:52.520Z,100958.27
2022-12-05T02:45:29.266Z,100953.17
2022-12-05T02:48:02.719Z,100953.90
2022-12-05T02:50:38.906Z,100959.30
2022-12-05T02:53:14.430Z,100970.64
2022-12-05T02:55:47.671Z,100973.79
2022-12-05T02:58:24.093Z,100974.83
2022-12-05T03:00:59.379Z,100977.06
2022-12-05T03:03:34.320Z,100978.35
2022-12-05T03:06:13.546Z,100976.48
2022-12-05T03:08:50.374Z,100974.80
2022-12-05T03:11:22.569Z,100971.14
2022-12-05T03:13:57.473Z,100973.10
2022-12-05T03:16:35.218Z,100973.20
2022-12-05T03:19:13.935Z,100972.03
2022-12-05T03:21:53.563Z,100967.67
2022-12-05T03:24:25.836Z,100969.32
2022-12-05T03:27:08.528Z,100969.83
2022-12-05T03:29:47.772Z,100968.52
2022-12-05T03:32:25.800Z,100967.36
2022-12-05T03:35:09.760Z,100961.86
2022-12-05T03:37:49.105Z,100956.86
2022-12-05T03:40:28.893Z,100952.25
2022-12-05T03:43:10.254Z,100949.80
2022-12-05T03:45:49.403Z,100961.80
2022-12-05T03:48:31.229Z,100970.31
2022-12-05T03:51:06.110Z,100966.83
2022-12-05T03:53:43.270Z,100976.90
2022-12-05T03:56:21.379Z,100972.27
2022-12-05T03:58:58.282Z,100974.86
2022-12-05T04:01:32.326Z,100970.65
2022-12-05T04:04:09.608Z,100972.03
2022-12-05T04:06:46.844Z,100976.52
2022-12-05T04:09:25.592Z,100972.03
2022-12-05T04:12:02.910Z,100971.38
2022-12-05T04:14:40.820Z,100969.61
2022-12-05T04:17:19.521Z,100964.76
2022-12-05T04:20:15.148Z,100965.17
2022-12-05T04:22:47.855Z,100966.25
2022-12-05T04:25:36.367Z,100962.98
2022-12-05T04:28:22.210Z,100955.63
2022-12-05T04:31:04.228Z,100943.45
2022-12-05T04:33:43.454Z,100935.17
2022-12-05T04:36:21.623Z,100935.33
2022-12-05T04:38:56.492Z,100927.64
2022-12-05T04:41:32.782Z,100930.50
2022-12-05T04:44:09.867Z,100936.73
2022-12-05T04:46:45.881Z,100935.48
2022-12-05T04:49:22.933Z,100938.41
2022-12-05T04:51:58.763Z,100936.09
2022-12-05T04:54:33.438Z,100935.59
2022-12-05T04:57:14.112Z,100937.88
2022-12-05T04:59:46.606Z,100943.15
2022-12-05T05:02:25.861Z,100943.53
2022-12-05T05:05:02.668Z,100941.30
2022-12-05T05:07:43.560Z,100941.65
2022-12-05T05:10:20.292Z,100947.27
2022-12-05T05:12:52.433Z,100945.36
2022-12-05T05:15:24.635Z,100947.15
2022-12-05T05:17:56.977Z,100945.27
2022-12-05T05:20:29.685Z,100947.55
2022-12-05T05:23:01.926Z,100951.31
2022-12-05T05:25:34.503Z,100947.36
2022-12-05T05:28:07.112Z,100954.41
2022-12-05T05:30:39.276Z,100954.88
2022-12-05T05:33:11.394Z,100952.48
2022-12-05T05:35:43.817Z,100950.03
2022-12-05T05:38:15.909Z,100949.59
2022-12-05T05:40:48.078Z,100954.35
2022-12-05T05:43:20.171Z,100953.48
2022-12-05T05:45:52.263Z,100954.05
2022-12-05T05:48:24.453Z,100953.71
2022-12-05T05:50:56.669Z,100956.80
2022-12-05T05:53:28.871Z,100952.92
2022-12-05T05:56:05.693Z,100951.91
2022-12-05T05:58:38.680Z,100948.09
2022-12-05T06:01:12.770Z,100944.84
2022-12-05T06:03:45.039Z,100945.85
2022-12-05T06:06:17.489Z,100950.80
2022-12-05T06:08:50.582Z,100948.83
2022-12-05T06:11:26.366Z,100951.82
2022-12-05T06:14:02.230Z,100948.67
2022-12-05T06:16:33.495Z,100945.36
2022-12-05T06:19:05.663Z,100937.66
2022-12-05T06:21:37.718Z,100940.73
2022-12-05T06:24:10.828Z,100943.86
2022-12-05T06:26:43.749Z,100949.30
2022-12-05T06:29:15.836Z,100945.70
2022-12-05T06:31:48.367Z,100948.80
2022-12-05T06:34:20.812Z,100953.09
2022-12-05T06:36:52.955Z,100950.94
2022-12-05T06:39:25.251Z,100947.80
2022-12-05T06:41:57.418Z,100952.01
2022-12-05T06:44:29.539Z,100948.85
2022-12-05T06:47:01.758Z,100947.64
2022-12-05T06:49:37.812Z,100948.63
2022-12-05T06:52:10.492Z,100949.61
2022-12-05T06:54:42.715Z,100947.89
2022-12-05T06:57:15.242Z,100949.95
2022-12-05T06:59:47.359Z,100946.36
2022-12-05T07:02:19.557Z,100954.41
2022-12-05T07:04:51.696Z,100951.35
2022-12-05T07:07:23.777Z,100950.18
2022-12-05T07:09:56.050Z,100949.22
2022-12-05T07:12:28.532Z,100943.29
2022-12-05T07:15:00.598Z,100942.72
2022-12-05T07:17:36.636Z,100947.77
2022-12-05T07:20:12.772Z,100948.52
2022-12-05T07:22:45.142Z,100946.84
2022-12-05T07:25:17.438Z,100947.86
2022-12-05T07:27:49.508Z,100948.71
2022-12-05T07:30:21.673Z,100948.05
2022-12-05T07:32:54.023Z,100953.25
2022-12-05T07:35:26.136Z,100948.29
2022-12-05T07:37:58.920Z,100948.98
2022-12-05T07:40:31.470Z,100943.98
2022-12-05T07:43:03.588Z,100946.19
2022-12-05T07:45:36.701Z,100947.70
2022-12-05T07:48:09.228Z,100951.84
2022-12-05T07:50:42.320Z,100949.16
2022-12-05T07:53:14.385Z,100953.50
2022-12-05T07:55:46.477Z,100952.83
2022-12-05T07:58:18.624Z,100944.48
2022-12-05T08:00:50.765Z,100941.41
2022-12-05T08:03:22.823Z,100938.73
2022-12-05T08:05:54.971Z,100938.77
2022-12-05T08:08:27.139Z,100931.64
2022-12-05T08:11:03.536Z,100929.48
2022-12-05T08:13:36.315Z,100924.45
2022-12-05T08:16:12.103Z,100921.36
2022-12-05T08:18:46.525Z,100919.05
2022-12-05T08:21:20.703Z,100922.61
2022-12-05T08:23:53.241Z,100922.36
2022-12-05T08:26:27.845Z,100922.65
2022-12-05T08:29:02.124Z,100923.15
2022-12-05T08:31:36.339Z,100922.02
2022-12-05T08:34:08.558Z,100919.90
2022-12-05T08:36:41.517Z,100918.05
2022-12-05T08:39:17.298Z,100911.61
2022-12-05T08:41:50.721Z,100911.98
2022-12-05T08:44:22.840Z,100916.17
2022-12-05T08:46:55.032Z,100915.27
2022-12-05T08:49:28.378Z,100916.71
2022-12-05T08:52:00.624Z,100918.45
2022-12-05T08:54:32.919Z,100914.90
2022-12-05T08:57:05.143Z,100925.22
2022-12-05T08:59:37.359Z,100923.08
2022-12-05T09:02:09.610Z,100924.49
2022-12-05T09:04:42.162Z,100921.58
2022-12-05T09:07:14.274Z,100920.27
2022-12-05T09:09:46.640Z,100919.13
2022-12-05T09:12:18.993Z,100913.04
2022-12-05T09:14:51.650Z,100912.90
2022-12-05T09:17:24.636Z,100908.42
2022-12-05T09:19:56.828Z,100909.30
2022-12-05T09:22:28.947Z,100910.12
2022-12-05T09:25:01.755Z,100909.69
2022-12-05T09:27:33.870Z,100907.39
2022-12-05T09:30:09.452Z,100909.43
2022-12-05T09:32:42.845Z,100905.98
2022-12-05T09:35:15.036Z,100906.40
2022-12-05T09:37:47.203Z,100908.40
2022-12-05T09:40:21.139Z,100905.61
2022-12-05T09:43:05.593Z,100897.69
2022-12-05T09:45:41.347Z,100901.45
2022-12-05T09:48:17.431Z,100898.84
2022-12-05T09:50:55.691Z,100897.44
2022-12-05T09:53:31.830Z,100893.52
2022-12-05T09:56:13.673Z,100889.30
2022-12-05T09:58:48.606Z,100890.77
2022-12-05T10:01:42.063Z,100887.02
2022-12-05T10:04:28.710Z,100887.16
2022-12-05T10:07:08.864Z,100892.61
2022-12-05T10:09:55.041Z,100892.86
2022-12-05T10:12:44.274Z,100902.17
2022-12-05T10:15:21.437Z,100899.10
2022-12-05T10:18:00.543Z,100899.71
2022-12-05T10:20:37.603Z,100896.41
2022-12-05T10:23:34.709Z,100894.73
2022-12-05T10:26:14.552Z,100886.36
2022-12-05T10:28:53.456Z,100883.46
2022-12-05T10:31:30.730Z,100877.55
2022-12-05T10:34:11.664Z,100867.00
2022-12-05T10:36:45.653Z,100859.73
2022-12-05T10:39:17.721Z,100855.55
2022-12-05T10:41:49.938Z,100853.63
2022-12-05T10:44:22.385Z,100849.85
2022-12-05T10:46:54.569Z,100852.14
2022-12-05T10:49:27.952Z,100854.17
2022-12-05T10:52:01.784Z,100851.17
2022-12-05T10:54:39.637Z,100844.22
2022-12-05T10:57:24.604Z,100839.44
2022-12-05T10:59:57.589Z,100831.45
2022-12-05T11:02:33.419Z,100830.71
2022-12-05T11:05:04.770Z,100829.15
2022-12-05T11:07:48.356Z,100828.59
2022-12-05T11:10:27.411Z,100826.66
2022-12-05T11:13:01.062Z,100824.58
2022-12-05T11:15:33.972Z,100819.42
2022-12-05T11:21:14.878Z,100813.64
2022-12-05T11:23:47.090Z,100810.88
2022-12-05T11:26:35.794Z,100804.77
2022-12-05T11:29:32.077Z,100799.02
2022-12-05T11:32:05.453Z,100793.81
2022-12-05T11:34:43.864Z,100796.08
2022-12-05T11:37:21.589Z,100797.92
2022-12-05T11:39:54.389Z,100796.23
2022-12-05T11:42:37.600Z,100790.21
2022-12-05T11:45:31.248Z,100790.23
2022-12-05T11:48:18.771Z,100787.48
2022-12-05T11:51:03.126Z,100783.23
2022-12-05T11:53:52.575Z,100778.03
2022-12-05T11:56:38.471Z,100776.80
2022-12-05T11:59:30.908Z,100772.36
2022-12-05T12:02:16.456Z,100762.63
2022-12-05T12:04:53.907Z,100760.86
2022-12-05T12:07:37.987Z,100758.72
2022-12-05T12:10:19.747Z,100755.89
2022-12-05T12:13:06.635Z,100754.20
2022-12-05T12:15:52.424Z,100750.06
2022-12-05T12:18:49.453Z,100747.55
2022-12-05T12:21:26.866Z,100749.35
2022-12-05T12:24:12.782Z,100742.46
2022-12-05T12:26:58.299Z,100745.47
2022-12-05T12:29:44.510Z,100739.77
2022-12-05T12:32:31.582Z,100733.80
2022-12-05T12:35:19.081Z,100732.93
2022-12-05T12:38:04.690Z,100735.65
2022-12-05T12:40:47.662Z,100736.90
2022-12-05T12:43:53.249Z,100731.20
2022-12-05T12:46:37.862Z,100729.66
2022-12-05T12:49:31.597Z,100735.84
2022-12-05T12:52:06.606Z,100734.20
2022-12-05T12:55:03.564Z,100732.37
2022-12-05T12:57:56.152Z,100736.41
2022-12-05T13:00:38.860Z,100734.14
2022-12-05T13:03:18.255Z,100742.16
2022-12-05T13:05:55.233Z,100737.42
2022-12-05T13:08:35.188Z,100734.45
2022-12-05T13:11:12.684Z,100724.50
2022-12-05T13:13:48.760Z,100723.23
2022-12-05T13:16:28.086Z,100733.66
2022-12-05T13:19:01.448Z,100734.36
2022-12-05T13:21:34.258Z,100736.16
2022-12-05T13:24:08.524Z,100727.59
2022-12-05T13:26:49.681Z,100723.59
2022-12-05T13:29:33.826Z,100723.83
2022-12-05T13:32:07.175Z,100722.04
2022-12-05T13:34:51.681Z,100721.19
2022-12-05T13:37:44.968Z,100718.34
2022-12-05T13:40:47.911Z,100712.52
2022-12-05T13:43:23.258Z,100715.95
2022-12-05T13:46:14.187Z,100713.84
2022-12-05T13:48:50.116Z,100713.73
2022-12-05T13:51:32.088Z,100708.86
2022-12-05T13:54:12.556Z,100694.34
2022-12-05T13:56:54.270Z,100682.52
2022-12-05T14:00:06.045Z,100672.30
2022-12-05T14:02:55.075Z,100660.55
2022-12-05T14:05:41.841Z,100651.98
2022-12-05T14:08:47.902Z,100655.51
2022-12-05T14:11:19.845Z,100652.27
2022-12-05T14:13:51.936Z,100645.40
2022-12-05T14:16:45.222Z,100642.80
2022-12-05T14:19:48.826Z,100637.81
2022-12-05T14:22:43.728Z,100621.48
2022-12-05T14:25:30.769Z,100625.30
2022-12-05T14:28:16.940Z,100632.41
2022-12-05T14:31:03.110Z,100633.81
2022-12-05T14:33:35.619Z,100634.11
2022-12-05T14:36:17.126Z,100639.22
2022-12-05T14:38:49.140Z,100641.48
2022-12-05T14:41:36.345Z,100640.60
2022-12-05T14:44:20.748Z,100646.20
2022-12-05T14:46:52.722Z,100646.17
2022-12-05T14:50:13.897Z,100647.20
2022-12-05T14:52:47.218Z,100651.54
2022-12-05T14:55:25.078Z,100645.56
2022-12-05T14:57:59.567Z,100647.28
2022-12-05T15:00:31.889Z,100645.91
2022-12-05T15:03:05.978Z,100644.70
2022-12-05T15:05:40.233Z,100647.10
2022-12-05T15:08:17.018Z,100643.88
2022-12-05T15:10:52.722Z,100642.10
2022-12-05T15:13:28.678Z,100636.61
2022-12-05T15:16:07.185Z,100636.32
2022-12-05T15:18:44.376Z,100642.79
2022-12-05T15:21:27.787Z,100645.71
2022-12-05T15:24:01.806Z,100643.27
2022-12-05T15:26:49.157Z,100645.23
2022-12-05T15:29:29.279Z,100646.42
2022-12-05T15:32:03.444Z,100643.42
2022-12-05T15:34:42.037Z,100639.70
2022-12-05T15:37:18.200Z,100632.33
2022-12-05T15:39:57.333Z,100624.77
2022-12-05T15:42:32.271Z,100618.89
2022-12-05T15:45:22.198Z,100621.76
2022-12-05T15:47:56.925Z,100617.13
2022-12-05T15:50:35.232Z,100618.73
2022-12-05T15:53:14.729Z,100620.40
2022-12-05T15:55:51.866Z,100619.44
2022-12-05T15:58:28.588Z,100613.02
2022-12-05T16:01:06.871Z,100616.02
2022-12-05T16:03:46.646Z,100616.66
2022-12-05T16:06:23.576Z,100609.17
2022-12-05T16:08:56.717Z,100602.95
2022-12-05T16:11:28.912Z,100600.05
2022-12-05T16:14:04.420Z,100602.80
2022-12-05T16:16:39.837Z,100602.88
2022-12-05T16:19:22.420Z,100604.60
2022-12-05T16:22:08.642Z,100613.73
2022-12-05T16:24:44.670Z,100613.13
2022-12-05T16:27:19.427Z,100613.59
2022-12-05T16:30:11.127Z,100616.17
2022-12-05T16:32:44.957Z,100613.81
2022-12-05T16:35:33.896Z,100615.95
2022-12-05T16:38:14.652Z,100612.79
2022-12-05T16:40:56.971Z,100612.23
2022-12-05T16:43:46.828Z,100610.52
2022-12-05T16:46:56.094Z,100609.41
2022-12-05T16:49:45.613Z,100603.02
2022-12-05T16:52:19.015Z,100602.09
2022-12-05T16:54:52.359Z,100601.86
2022-12-05T16:57:24.577Z,100599.22
2022-12-05T16:59:58.077Z,100591.98
2022-12-05T17:02:30.037Z,100588.77
2022-12-05T17:05:08.073Z,100591.31
2022-12-05T17:07:40.018Z,100585.30
2022-12-05T17:10:12.685Z,100581.64
2022-12-05T17:12:47.772Z,100581.98
2022-12-05T17:15:21.878Z,100582.02
2022-12-05T17:17:54.034Z,100578.88
2022-12-05T17:20:25.970Z,100584.40
2022-12-05T17:22:57.887Z,100579.23
2022-12-05T17:25:36.428Z,100578.92
2022-12-05T17:28:08.364Z,100577.77
2022-12-05T17:30:40.892Z,100575.33
2022-12-05T17:33:15.209Z,100572.29
2022-12-05T17:35:47.281Z,100570.40
2022-12-05T17:38:19.263Z,100567.62
2022-12-05T17:40:51.178Z,100568.34
2022-12-05T17:43:25.487Z,100569.09
2022-12-05T17:46:00.482Z,100566.95
2022-12-05T17:48:32.449Z,100565.77
2022-12-05T17:51:06.734Z,100566.39
2022-12-05T17:53:39.060Z,100562.42
2022-12-05T17:56:11.436Z,100562.58
2022-12-05T17:58:43.464Z,100559.17
2022-12-05T18:01:18.771Z,100562.67
2022-12-05T18:03:51.571Z,100559.47
2022-12-05T18:06:23.533Z,100553.86
2022-12-05T18:08:55.625Z,100556.61
2022-12-05T18:11:27.591Z,100551.58
2022-12-05T18:14:00.204Z,100550.30
2022-12-05T18:16:32.297Z,100546.13
2022-12-05T18:19:04.272Z,100548.05
2022-12-05T18:21:36.292Z,100548.11
2022-12-05T18:24:09.249Z,100549.06
2022-12-05T18:26:41.503Z,100544.84
2022-12-05T18:29:13.560Z,100538.87
2022-12-05T18:31:45.540Z,100531.77
2022-12-05T18:34:17.919Z,100527.16
2022-12-05T18:36:49.871Z,100526.11
2022-12-05T18:39:21.927Z,100533.79
2022-12-05T18:41:54.454Z,100532.02
2022-12-05T18:44:26.596Z,100529.75
2022-12-05T18:46:58.527Z,100530.27
2022-12-05T18:49:30.807Z,100529.77
2022-12-05T18:52:03.126Z,100527.21
2022-12-05T18:54:35.216Z,100526.48
2022-12-05T18:57:07.234Z,100522.83
2022-12-05T18:59:39.246Z,100515.28
2022-12-05T19:02:12.065Z,100515.06
2022-12-05T19:04:44.480Z,100513.05
2022-12-05T19:07:16.468Z,100515.77
2022-12-05T19:09:49.020Z,100517.73
2022-12-05T19:12:21.112Z,100514.30
2022-12-05T19:14:53.080Z,100512.23
2022-12-05T19:17:25.197Z,100512.23
2022-12-05T19:19:58.746Z,100509.29
2022-12-05T19:22:31.484Z,100507.44
2022-12-05T19:25:03.616Z,100505.56
2022-12-05T19:27:35.531Z,100507.64
2022-12-05T19:30:10.889Z,100505.64
2022-12-05T19:32:42.944Z,100507.85
2022-12-05T19:35:15.386Z,100501.10
2022-12-05T19:37:47.300Z,100498.05
2022-12-05T19:40:19.468Z,100494.50
2022-12-05T19:42:51.379Z,100496.48
2022-12-05T19:45:23.342Z,100495.36
2022-12-05T19:47:55.254Z,100494.02
2022-12-05T19:50:28.627Z,100493.92
2022-12-05T19:53:01.076Z,100497.97
2022-12-05T19:55:33.064Z,100499.89
2022-12-05T19:58:04.900Z,100502.31
2022-12-05T20:00:36.814Z,100504.69
2022-12-05T20:03:12.136Z,100504.48
2022-12-05T20:05:44.408Z,100505.19
2022-12-05T20:08:16.395Z,100504.97
2022-12-05T20:10:50.020Z,100504.99
2022-12-05T20:13:45.933Z,100501.56
2022-12-05T20:16:17.161Z,100500.42
2022-12-05T20:18:49.945Z,100500.86
2022-12-05T20:21:23.434Z,100501.67
2022-12-05T20:23:55.817Z,100501.89
2022-12-05T20:26:29.650Z,100498.13
2022-12-05T20:29:02.765Z,100492.17
2022-12-05T20:31:36.776Z,100491.88
2022-12-05T20:34:10.662Z,100484.77
2022-12-05T20:36:43.136Z,100483.80
2022-12-05T20:39:17.094Z,100482.54
2022-12-05T20:41:50.167Z,100481.32
2022-12-05T20:44:22.514Z,100478.31
2022-12-05T20:46:54.829Z,100479.66
2022-12-05T20:49:27.049Z,100478.44
2022-12-05T20:51:58.961Z,100481.61
2022-12-05T20:54:30.925Z,100476.48
2022-12-05T20:57:03.297Z,100476.85
2022-12-05T20:59:35.340Z,100479.23
2022-12-05T21:02:07.784Z,100475.34
2022-12-05T21:04:41.139Z,100473.70
2022-12-05T21:07:13.049Z,100470.63
2022-12-05T21:09:44.931Z,100470.05
2022-12-05T21:12:16.870Z,100465.82
2022-12-05T21:14:48.759Z,100460.48
2022-12-05T21:17:20.695Z,100455.66
2022-12-05T21:19:52.633Z,100455.00
2022-12-05T21:22:24.697Z,100456.35
2022-12-05T21:24:56.638Z,100456.23
2022-12-05T21:27:28.752Z,100455.40
2022-12-05T21:30:00.954Z,100458.75
2022-12-05T21:32:33.242Z,100456.86
2022-12-05T21:35:06.037Z,100455.25
2022-12-05T21:37:38.680Z,100453.14
2022-12-05T21:40:12.566Z,100449.84
2022-12-05T21:42:44.988Z,100447.73
2022-12-05T21:45:17.181Z,100449.71
2022-12-05T21:47:49.118Z,100457.50
2022-12-05T21:50:21.107Z,100453.89
2022-12-05T21:52:53.097Z,100453.30
2022-12-05T21:55:25.137Z,100450.60
2022-12-05T21:57:57.666Z,100451.66
2022-12-05T22:00:29.551Z,100453.01
2022-12-05T22:03:01.643Z,100446.70
2022-12-05T22:05:34.373Z,100444.36
2022-12-05T22:08:06.974Z,100437.34
2022-12-05T22:10:39.171Z,100431.94
2022-12-05T22:13:11.263Z,100427.02
2022-12-05T22:15:43.291Z,100419.98
2022-12-05T22:18:15.271Z,100420.04
2022-12-05T22:20:47.231Z,100414.76
2022-12-05T22:23:19.475Z,100412.51
2022-12-05T22:25:59.579Z,100410.20
2022-12-05T22:28:32.462Z,100405.40
2022-12-05T22:31:06.247Z,100405.08
2022-12-05T22:33:39.212Z,100400.33
2022-12-05T22:36:13.935Z,100398.75
2022-12-05T22:38:48.154Z,100390.48
2022-12-05T22:41:21.290Z,100393.94
2022-12-05T22:43:57.788Z,100398.59
2022-12-05T22:46:30.535Z,100394.30
2022-12-05T22:49:04.122Z,100397.02
2022-12-05T22:51:36.337Z,100391.71
2022-12-05T22:54:08.791Z,100392.20
2022-12-05T22:56:41.136Z,100390.21
2022-12-05T22:59:14.927Z,100391.73
2022-12-05T23:01:47.468Z,100381.05
2022-12-05T23:04:20.349Z,100378.01
2022-12-05T23:06:52.522Z,100378.33
2022-12-05T23:09:25.231Z,100380.14
2022-12-05T23:11:57.144Z,100376.70
2022-12-05T23:14:29.079Z,100374.56
2022-12-05T23:17:01.094Z,100370.81
2022-12-05T23:19:32.979Z,100366.34
2022-12-05T23:22:05.250Z,100360.15
2022-12-05T23:24:37.341Z,100361.33
2022-12-05T23:27:09.330Z,100358.39
2022-12-05T23:29:42.705Z,100358.02
2022-12-05T23:32:15.147Z,100355.38
2022-12-05T23:34:47.271Z,100352.90
2022-12-05T23:37:19.286Z,100350.57
2022-12-05T23:39:51.297Z,100350.92
2022-12-05T23:42:23.235Z,100349.42
2022-12-05T23:44:55.484Z,100344.74
2022-12-05T23:47:27.622Z,100345.94
2022-12-05T23:49:59.772Z,100340.30
2022-12-05T23:52:31.832Z,100337.38
2022-12-05T23:55:03.901Z,100338.95
2022-12-05T23:57:36.156Z,100337.51
